Terminal Aerodrome Forecast
Issued by NWS

Home | Current Version | Previous Version | Graphics & Text | Print | Product List | Glossary On
Versions: 1 2 3 4 5 6 7 8 9 10 11 12 13 14 15 16 17 18 19 20 21
000
FTUS43 KMPX 281700
TAFRWF
TAF
KRWF 281732Z 2818/2918 19010KT P6SM SCT060
     FM282000 21010KT P6SM SCT070
     FM290000 21005KT P6SM SCT060
     FM290900 35006KT P6SM SCT025 BKN070
     FM291200 02008KT P6SM BKN007 OVC018
     FM291500 05010KT P6SM VCSH SCT007 OVC018=

USA.gov is the U.S. government's official web portal to all federal, state and local government web resources and services.